sensor_id;sensor_type;location;lat;lon;timestamp;P1;durP1;ratioP1;P2;durP2;ratioP2
39454;SDS011;25155;41.890;23.446;2023-02-02T00:01:14;9.25;;;5.03;;
39454;SDS011;25155;41.890;23.446;2023-02-02T00:03:42;15.48;;;7.68;;
39454;SDS011;25155;41.890;23.446;2023-02-02T00:06:09;15.30;;;8.18;;
39454;SDS011;25155;41.890;23.446;2023-02-02T00:08:37;22.80;;;11.45;;
39454;SDS011;25155;41.890;23.446;2023-02-02T00:11:05;22.60;;;10.98;;
39454;SDS011;25155;41.890;23.446;2023-02-02T00:13:32;23.73;;;12.38;;
39454;SDS011;25155;41.890;23.446;2023-02-02T00:19:03;20.13;;;9.70;;
39454;SDS011;25155;41.890;23.446;2023-02-02T00:21:31;17.27;;;9.35;;
39454;SDS011;25155;41.890;23.446;2023-02-02T00:23:59;17.02;;;9.30;;
39454;SDS011;25155;41.890;23.446;2023-02-02T00:26:26;19.48;;;10.23;;
39454;SDS011;25155;41.890;23.446;2023-02-02T00:28:53;20.00;;;10.70;;
39454;SDS011;25155;41.890;23.446;2023-02-02T00:31:20;25.35;;;12.95;;
39454;SDS011;25155;41.890;23.446;2023-02-02T00:33:49;25.08;;;13.02;;
39454;SDS011;25155;41.890;23.446;2023-02-02T00:36:18;21.85;;;11.77;;
39454;SDS011;25155;41.890;23.446;2023-02-02T00:38:46;26.55;;;12.48;;
39454;SDS011;25155;41.890;23.446;2023-02-02T00:41:14;31.02;;;15.60;;
39454;SDS011;25155;41.890;23.446;2023-02-02T00:43:42;14.60;;;6.53;;
39454;SDS011;25155;41.890;23.446;2023-02-02T00:46:10;11.93;;;6.13;;
39454;SDS011;25155;41.890;23.446;2023-02-02T00:48:39;6.22;;;3.20;;
39454;SDS011;25155;41.890;23.446;2023-02-02T00:51:08;8.05;;;2.88;;
39454;SDS011;25155;41.890;23.446;2023-02-02T00:53:35;6.03;;;2.80;;
39454;SDS011;25155;41.890;23.446;2023-02-02T00:56:02;4.55;;;2.35;;
39454;SDS011;25155;41.890;23.446;2023-02-02T00:58:30;4.10;;;2.33;;
39454;SDS011;25155;41.890;23.446;2023-02-02T01:00:58;4.38;;;2.38;;
39454;SDS011;25155;41.890;23.446;2023-02-02T01:03:25;4.05;;;2.20;;
39454;SDS011;25155;41.890;23.446;2023-02-02T01:05:53;4.40;;;2.10;;
39454;SDS011;25155;41.890;23.446;2023-02-02T01:08:22;4.90;;;2.30;;
39454;SDS011;25155;41.890;23.446;2023-02-02T01:10:49;4.22;;;2.10;;
39454;SDS011;25155;41.890;23.446;2023-02-02T01:13:16;4.97;;;2.38;;
39454;SDS011;25155;41.890;23.446;2023-02-02T01:15:43;3.92;;;2.00;;
39454;SDS011;25155;41.890;23.446;2023-02-02T01:18:10;5.88;;;2.30;;
39454;SDS011;25155;41.890;23.446;2023-02-02T01:20:37;5.45;;;2.50;;
39454;SDS011;25155;41.890;23.446;2023-02-02T01:23:05;5.03;;;2.30;;
39454;SDS011;25155;41.890;23.446;2023-02-02T01:25:33;3.70;;;2.22;;
39454;SDS011;25155;41.890;23.446;2023-02-02T01:28:03;3.30;;;1.88;;
39454;SDS011;25155;41.890;23.446;2023-02-02T01:30:30;6.43;;;2.20;;
39454;SDS011;25155;41.890;23.446;2023-02-02T01:32:58;4.43;;;2.22;;
39454;SDS011;25155;41.890;23.446;2023-02-02T01:35:25;3.65;;;2.13;;
39454;SDS011;25155;41.890;23.446;2023-02-02T01:37:52;6.95;;;2.28;;
39454;SDS011;25155;41.890;23.446;2023-02-02T01:40:20;4.97;;;2.40;;
39454;SDS011;25155;41.890;23.446;2023-02-02T01:42:49;4.13;;;2.22;;
39454;SDS011;25155;41.890;23.446;2023-02-02T01:45:19;4.78;;;2.33;;
39454;SDS011;25155;41.890;23.446;2023-02-02T01:47:51;7.60;;;2.47;;
39454;SDS011;25155;41.890;23.446;2023-02-02T01:52:50;4.82;;;2.40;;
39454;SDS011;25155;41.890;23.446;2023-02-02T01:55:20;4.20;;;2.15;;
39454;SDS011;25155;41.890;23.446;2023-02-02T01:57:52;5.53;;;2.70;;
39454;SDS011;25155;41.890;23.446;2023-02-02T02:00:25;4.35;;;2.00;;
39454;SDS011;25155;41.890;23.446;2023-02-02T02:02:53;5.57;;;2.33;;
39454;SDS011;25155;41.890;23.446;2023-02-02T02:05:25;5.85;;;2.58;;
39454;SDS011;25155;41.890;23.446;2023-02-02T02:08:01;4.50;;;2.30;;
39454;SDS011;25155;41.890;23.446;2023-02-02T02:10:34;4.80;;;2.20;;
39454;SDS011;25155;41.890;23.446;2023-02-02T02:13:02;3.70;;;2.00;;
39454;SDS011;25155;41.890;23.446;2023-02-02T02:15:31;4.65;;;2.30;;
39454;SDS011;25155;41.890;23.446;2023-02-02T02:18:25;6.28;;;2.25;;
39454;SDS011;25155;41.890;23.446;2023-02-02T02:21:14;4.05;;;2.30;;
39454;SDS011;25155;41.890;23.446;2023-02-02T02:34:25;5.03;;;2.20;;
39454;SDS011;25155;41.890;23.446;2023-02-02T02:37:02;5.53;;;2.65;;
39454;SDS011;25155;41.890;23.446;2023-02-02T02:39:37;4.57;;;2.10;;
39454;SDS011;25155;41.890;23.446;2023-02-02T02:42:11;4.88;;;2.40;;
39454;SDS011;25155;41.890;23.446;2023-02-02T02:44:41;4.50;;;2.38;;
39454;SDS011;25155;41.890;23.446;2023-02-02T02:47:09;4.72;;;2.13;;
39454;SDS011;25155;41.890;23.446;2023-02-02T02:49:42;4.82;;;2.08;;
39454;SDS011;25155;41.890;23.446;2023-02-02T02:52:10;4.38;;;2.20;;
39454;SDS011;25155;41.890;23.446;2023-02-02T02:54:39;5.22;;;2.20;;
39454;SDS011;25155;41.890;23.446;2023-02-02T02:57:24;8.35;;;2.25;;
39454;SDS011;25155;41.890;23.446;2023-02-02T03:00:07;4.60;;;2.00;;
39454;SDS011;25155;41.890;23.446;2023-02-02T03:02:46;4.25;;;2.28;;
39454;SDS011;25155;41.890;23.446;2023-02-02T03:05:25;5.75;;;2.40;;
39454;SDS011;25155;41.890;23.446;2023-02-02T03:08:02;5.75;;;2.40;;
39454;SDS011;25155;41.890;23.446;2023-02-02T03:10:35;4.63;;;2.28;;
39454;SDS011;25155;41.890;23.446;2023-02-02T03:13:05;4.60;;;2.22;;
39454;SDS011;25155;41.890;23.446;2023-02-02T03:15:34;6.28;;;2.30;;
39454;SDS011;25155;41.890;23.446;2023-02-02T03:18:02;6.15;;;2.13;;
39454;SDS011;25155;41.890;23.446;2023-02-02T03:20:31;4.07;;;2.22;;
39454;SDS011;25155;41.890;23.446;2023-02-02T03:22:58;4.78;;;2.33;;
39454;SDS011;25155;41.890;23.446;2023-02-02T03:25:25;4.30;;;1.90;;
39454;SDS011;25155;41.890;23.446;2023-02-02T03:27:52;5.35;;;2.30;;
39454;SDS011;25155;41.890;23.446;2023-02-02T03:30:19;5.57;;;2.50;;
39454;SDS011;25155;41.890;23.446;2023-02-02T03:32:48;4.65;;;2.30;;
39454;SDS011;25155;41.890;23.446;2023-02-02T03:35:17;4.25;;;2.28;;
39454;SDS011;25155;41.890;23.446;2023-02-02T03:37:46;4.07;;;2.20;;
39454;SDS011;25155;41.890;23.446;2023-02-02T03:40:14;5.15;;;2.30;;
39454;SDS011;25155;41.890;23.446;2023-02-02T03:42:41;3.97;;;2.17;;
39454;SDS011;25155;41.890;23.446;2023-02-02T03:45:09;3.95;;;2.20;;
39454;SDS011;25155;41.890;23.446;2023-02-02T03:47:37;4.57;;;2.17;;
39454;SDS011;25155;41.890;23.446;2023-02-02T03:50:05;5.00;;;2.20;;
39454;SDS011;25155;41.890;23.446;2023-02-02T03:52:33;4.75;;;2.30;;
39454;SDS011;25155;41.890;23.446;2023-02-02T03:55:03;5.60;;;2.42;;
39454;SDS011;25155;41.890;23.446;2023-02-02T03:57:31;5.53;;;2.30;;
39454;SDS011;25155;41.890;23.446;2023-02-02T03:59:58;3.80;;;2.33;;
39454;SDS011;25155;41.890;23.446;2023-02-02T04:02:25;5.10;;;2.30;;
39454;SDS011;25155;41.890;23.446;2023-02-02T04:04:52;4.53;;;2.30;;
39454;SDS011;25155;41.890;23.446;2023-02-02T04:07:20;4.65;;;2.40;;
39454;SDS011;25155;41.890;23.446;2023-02-02T04:09:47;6.68;;;2.15;;
39454;SDS011;25155;41.890;23.446;2023-02-02T04:12:16;5.32;;;2.13;;
39454;SDS011;25155;41.890;23.446;2023-02-02T04:14:43;3.90;;;2.35;;
39454;SDS011;25155;41.890;23.446;2023-02-02T04:17:10;5.47;;;2.83;;
39454;SDS011;25155;41.890;23.446;2023-02-02T04:19:37;4.57;;;2.30;;
39454;SDS011;25155;41.890;23.446;2023-02-02T04:22:05;7.25;;;2.35;;
39454;SDS011;25155;41.890;23.446;2023-02-02T04:24:32;5.35;;;2.35;;
39454;SDS011;25155;41.890;23.446;2023-02-02T04:26:59;3.90;;;2.20;;
39454;SDS011;25155;41.890;23.446;2023-02-02T04:29:30;4.45;;;2.20;;
39454;SDS011;25155;41.890;23.446;2023-02-02T04:31:58;4.75;;;2.35;;
39454;SDS011;25155;41.890;23.446;2023-02-02T04:34:25;5.13;;;2.10;;
39454;SDS011;25155;41.890;23.446;2023-02-02T04:36:52;5.07;;;2.65;;
39454;SDS011;25155;41.890;23.446;2023-02-02T04:39:20;5.20;;;2.42;;
39454;SDS011;25155;41.890;23.446;2023-02-02T04:41:47;4.88;;;2.40;;
39454;SDS011;25155;41.890;23.446;2023-02-02T04:44:14;5.60;;;2.45;;
39454;SDS011;25155;41.890;23.446;2023-02-02T04:46:43;3.58;;;2.13;;
39454;SDS011;25155;41.890;23.446;2023-02-02T04:49:11;7.38;;;2.30;;
39454;SDS011;25155;41.890;23.446;2023-02-02T04:51:38;5.07;;;2.38;;
39454;SDS011;25155;41.890;23.446;2023-02-02T04:54:06;7.13;;;2.50;;
39454;SDS011;25155;41.890;23.446;2023-02-02T04:56:33;4.97;;;2.58;;
39454;SDS011;25155;41.890;23.446;2023-02-02T04:59:01;3.95;;;2.38;;
39454;SDS011;25155;41.890;23.446;2023-02-02T05:01:28;4.60;;;2.35;;
39454;SDS011;25155;41.890;23.446;2023-02-02T05:03:57;4.30;;;2.50;;
39454;SDS011;25155;41.890;23.446;2023-02-02T05:06:24;5.30;;;2.42;;
39454;SDS011;25155;41.890;23.446;2023-02-02T05:08:52;5.43;;;2.70;;
39454;SDS011;25155;41.890;23.446;2023-02-02T05:11:19;6.03;;;2.78;;
39454;SDS011;25155;41.890;23.446;2023-02-02T05:13:48;7.90;;;2.85;;
39454;SDS011;25155;41.890;23.446;2023-02-02T05:16:16;6.65;;;3.00;;
39454;SDS011;25155;41.890;23.446;2023-02-02T05:18:47;5.50;;;2.78;;
39454;SDS011;25155;41.890;23.446;2023-02-02T05:21:16;5.55;;;3.05;;
39454;SDS011;25155;41.890;23.446;2023-02-02T05:23:44;5.63;;;2.72;;
39454;SDS011;25155;41.890;23.446;2023-02-02T05:26:13;5.43;;;2.65;;
39454;SDS011;25155;41.890;23.446;2023-02-02T05:28:42;5.20;;;2.80;;
39454;SDS011;25155;41.890;23.446;2023-02-02T05:31:10;5.38;;;3.22;;
39454;SDS011;25155;41.890;23.446;2023-02-02T05:33:37;5.60;;;2.88;;
39454;SDS011;25155;41.890;23.446;2023-02-02T05:36:04;4.65;;;2.67;;
39454;SDS011;25155;41.890;23.446;2023-02-02T05:38:34;6.30;;;2.95;;
39454;SDS011;25155;41.890;23.446;2023-02-02T05:41:01;5.65;;;3.20;;
39454;SDS011;25155;41.890;23.446;2023-02-02T05:43:29;6.38;;;2.95;;
39454;SDS011;25155;41.890;23.446;2023-02-02T05:45:57;5.40;;;2.83;;
39454;SDS011;25155;41.890;23.446;2023-02-02T05:48:25;5.95;;;3.13;;
39454;SDS011;25155;41.890;23.446;2023-02-02T05:50:55;5.78;;;2.90;;
39454;SDS011;25155;41.890;23.446;2023-02-02T05:53:28;7.20;;;3.42;;
39454;SDS011;25155;41.890;23.446;2023-02-02T05:55:57;5.90;;;3.03;;
39454;SDS011;25155;41.890;23.446;2023-02-02T05:58:25;6.10;;;3.20;;
39454;SDS011;25155;41.890;23.446;2023-02-02T06:00:53;5.63;;;3.25;;
39454;SDS011;25155;41.890;23.446;2023-02-02T06:03:20;5.97;;;3.28;;
39454;SDS011;25155;41.890;23.446;2023-02-02T06:05:48;6.28;;;3.05;;
39454;SDS011;25155;41.890;23.446;2023-02-02T06:08:15;6.45;;;3.20;;
39454;SDS011;25155;41.890;23.446;2023-02-02T06:10:42;6.25;;;3.08;;
39454;SDS011;25155;41.890;23.446;2023-02-02T06:13:11;6.45;;;3.28;;
39454;SDS011;25155;41.890;23.446;2023-02-02T06:15:38;6.03;;;3.28;;
39454;SDS011;25155;41.890;23.446;2023-02-02T06:18:07;4.60;;;3.13;;
39454;SDS011;25155;41.890;23.446;2023-02-02T06:20:36;5.28;;;2.90;;
39454;SDS011;25155;41.890;23.446;2023-02-02T06:23:03;5.95;;;3.20;;
39454;SDS011;25155;41.890;23.446;2023-02-02T06:25:32;5.43;;;2.97;;
39454;SDS011;25155;41.890;23.446;2023-02-02T06:28:00;7.55;;;3.15;;
39454;SDS011;25155;41.890;23.446;2023-02-02T06:30:29;4.60;;;2.80;;
39454;SDS011;25155;41.890;23.446;2023-02-02T06:32:57;5.47;;;2.95;;
39454;SDS011;25155;41.890;23.446;2023-02-02T06:35:26;6.60;;;3.22;;
39454;SDS011;25155;41.890;23.446;2023-02-02T06:37:53;5.82;;;2.80;;
39454;SDS011;25155;41.890;23.446;2023-02-02T06:40:20;5.07;;;3.03;;
39454;SDS011;25155;41.890;23.446;2023-02-02T06:42:47;6.90;;;2.80;;
39454;SDS011;25155;41.890;23.446;2023-02-02T06:45:20;7.60;;;2.72;;
39454;SDS011;25155;41.890;23.446;2023-02-02T06:47:49;4.60;;;2.55;;
39454;SDS011;25155;41.890;23.446;2023-02-02T06:50:18;4.47;;;2.58;;
39454;SDS011;25155;41.890;23.446;2023-02-02T06:52:46;5.25;;;2.55;;
39454;SDS011;25155;41.890;23.446;2023-02-02T06:55:13;4.85;;;2.80;;
39454;SDS011;25155;41.890;23.446;2023-02-02T06:57:41;5.28;;;2.78;;
39454;SDS011;25155;41.890;23.446;2023-02-02T07:00:08;5.03;;;2.42;;
39454;SDS011;25155;41.890;23.446;2023-02-02T07:02:37;5.35;;;2.75;;
39454;SDS011;25155;41.890;23.446;2023-02-02T07:05:06;6.15;;;2.70;;
39454;SDS011;25155;41.890;23.446;2023-02-02T07:07:34;5.85;;;3.05;;
39454;SDS011;25155;41.890;23.446;2023-02-02T07:10:01;6.30;;;3.00;;
39454;SDS011;25155;41.890;23.446;2023-02-02T07:12:29;7.40;;;3.00;;
39454;SDS011;25155;41.890;23.446;2023-02-02T07:14:56;5.43;;;2.78;;
39454;SDS011;25155;41.890;23.446;2023-02-02T07:17:24;5.00;;;2.70;;
39454;SDS011;25155;41.890;23.446;2023-02-02T07:19:51;4.57;;;2.55;;
39454;SDS011;25155;41.890;23.446;2023-02-02T07:22:21;5.45;;;2.75;;
39454;SDS011;25155;41.890;23.446;2023-02-02T07:24:48;5.22;;;2.65;;
39454;SDS011;25155;41.890;23.446;2023-02-02T07:27:16;6.53;;;3.10;;
39454;SDS011;25155;41.890;23.446;2023-02-02T07:29:43;5.35;;;2.78;;
39454;SDS011;25155;41.890;23.446;2023-02-02T07:32:10;5.45;;;2.95;;
39454;SDS011;25155;41.890;23.446;2023-02-02T07:34:37;5.70;;;2.67;;
39454;SDS011;25155;41.890;23.446;2023-02-02T07:37:07;5.40;;;2.60;;
39454;SDS011;25155;41.890;23.446;2023-02-02T07:39:36;7.85;;;3.08;;
39454;SDS011;25155;41.890;23.446;2023-02-02T07:42:04;5.43;;;2.85;;
39454;SDS011;25155;41.890;23.446;2023-02-02T07:44:32;4.50;;;2.58;;
39454;SDS011;25155;41.890;23.446;2023-02-02T07:47:00;4.30;;;2.58;;
39454;SDS011;25155;41.890;23.446;2023-02-02T07:49:27;4.53;;;2.55;;
39454;SDS011;25155;41.890;23.446;2023-02-02T07:51:54;8.35;;;3.15;;
39454;SDS011;25155;41.890;23.446;2023-02-02T07:54:22;6.70;;;3.17;;
39454;SDS011;25155;41.890;23.446;2023-02-02T07:56:50;5.25;;;2.80;;
39454;SDS011;25155;41.890;23.446;2023-02-02T07:59:17;5.30;;;3.10;;
39454;SDS011;25155;41.890;23.446;2023-02-02T08:01:45;5.55;;;2.83;;
39454;SDS011;25155;41.890;23.446;2023-02-02T08:04:12;5.70;;;3.15;;
39454;SDS011;25155;41.890;23.446;2023-02-02T08:06:40;6.75;;;3.20;;
39454;SDS011;25155;41.890;23.446;2023-02-02T08:09:07;6.25;;;3.05;;
39454;SDS011;25155;41.890;23.446;2023-02-02T08:11:35;5.88;;;3.28;;
39454;SDS011;25155;41.890;23.446;2023-02-02T08:14:05;5.82;;;3.20;;
39454;SDS011;25155;41.890;23.446;2023-02-02T08:16:32;5.63;;;3.05;;
39454;SDS011;25155;41.890;23.446;2023-02-02T08:19:00;5.45;;;3.15;;
39454;SDS011;25155;41.890;23.446;2023-02-02T08:21:27;5.85;;;3.22;;
39454;SDS011;25155;41.890;23.446;2023-02-02T08:23:54;5.47;;;2.97;;
39454;SDS011;25155;41.890;23.446;2023-02-02T08:26:23;7.60;;;3.42;;
39454;SDS011;25155;41.890;23.446;2023-02-02T08:28:51;5.57;;;2.92;;
39454;SDS011;25155;41.890;23.446;2023-02-02T08:31:22;6.30;;;2.97;;
39454;SDS011;25155;41.890;23.446;2023-02-02T08:33:51;5.95;;;3.00;;
39454;SDS011;25155;41.890;23.446;2023-02-02T08:36:19;6.15;;;3.25;;
39454;SDS011;25155;41.890;23.446;2023-02-02T08:38:47;7.68;;;3.40;;
39454;SDS011;25155;41.890;23.446;2023-02-02T08:41:16;6.05;;;2.65;;
39454;SDS011;25155;41.890;23.446;2023-02-02T08:43:45;5.20;;;2.97;;
39454;SDS011;25155;41.890;23.446;2023-02-02T08:46:13;4.68;;;2.60;;
39454;SDS011;25155;41.890;23.446;2023-02-02T08:48:43;4.45;;;2.70;;
39454;SDS011;25155;41.890;23.446;2023-02-02T08:51:11;4.47;;;2.50;;
39454;SDS011;25155;41.890;23.446;2023-02-02T08:53:40;4.47;;;2.70;;
39454;SDS011;25155;41.890;23.446;2023-02-02T08:56:09;4.20;;;2.60;;
39454;SDS011;25155;41.890;23.446;2023-02-02T08:58:38;5.22;;;2.97;;
39454;SDS011;25155;41.890;23.446;2023-02-02T09:01:06;5.82;;;3.20;;
39454;SDS011;25155;41.890;23.446;2023-02-02T09:03:37;5.53;;;3.10;;
39454;SDS011;25155;41.890;23.446;2023-02-02T09:06:06;5.97;;;3.03;;
39454;SDS011;25155;41.890;23.446;2023-02-02T09:08:35;5.30;;;2.83;;
39454;SDS011;25155;41.890;23.446;2023-02-02T09:11:06;4.97;;;2.88;;
39454;SDS011;25155;41.890;23.446;2023-02-02T09:13:36;6.35;;;3.22;;
39454;SDS011;25155;41.890;23.446;2023-02-02T09:16:05;4.63;;;2.60;;
39454;SDS011;25155;41.890;23.446;2023-02-02T09:18:34;5.55;;;2.75;;
39454;SDS011;25155;41.890;23.446;2023-02-02T09:21:03;5.53;;;3.00;;
39454;SDS011;25155;41.890;23.446;2023-02-02T09:23:33;4.10;;;2.70;;
39454;SDS011;25155;41.890;23.446;2023-02-02T09:26:09;4.70;;;2.80;;
39454;SDS011;25155;41.890;23.446;2023-02-02T09:28:38;4.22;;;2.90;;
39454;SDS011;25155;41.890;23.446;2023-02-02T09:31:06;7.40;;;3.08;;
39454;SDS011;25155;41.890;23.446;2023-02-02T09:33:34;7.13;;;2.97;;
39454;SDS011;25155;41.890;23.446;2023-02-02T09:36:07;4.90;;;3.10;;
39454;SDS011;25155;41.890;23.446;2023-02-02T09:38:36;5.13;;;2.80;;
39454;SDS011;25155;41.890;23.446;2023-02-02T09:41:26;4.93;;;2.78;;
39454;SDS011;25155;41.890;23.446;2023-02-02T09:44:12;4.70;;;2.97;;
39454;SDS011;25155;41.890;23.446;2023-02-02T09:46:50;7.47;;;3.10;;
39454;SDS011;25155;41.890;23.446;2023-02-02T09:49:31;5.78;;;2.83;;
39454;SDS011;25155;41.890;23.446;2023-02-02T09:52:07;6.22;;;3.03;;
39454;SDS011;25155;41.890;23.446;2023-02-02T09:54:40;7.93;;;3.33;;
39454;SDS011;25155;41.890;23.446;2023-02-02T09:57:11;5.00;;;2.70;;
39454;SDS011;25155;41.890;23.446;2023-02-02T09:59:42;6.07;;;3.00;;
39454;SDS011;25155;41.890;23.446;2023-02-02T10:02:12;4.78;;;2.70;;
39454;SDS011;25155;41.890;23.446;2023-02-02T10:04:44;4.07;;;2.67;;
39454;SDS011;25155;41.890;23.446;2023-02-02T10:07:18;5.18;;;3.20;;
39454;SDS011;25155;41.890;23.446;2023-02-02T10:09:50;5.53;;;2.70;;
39454;SDS011;25155;41.890;23.446;2023-02-02T10:12:26;5.97;;;2.80;;
39454;SDS011;25155;41.890;23.446;2023-02-02T10:14:59;6.80;;;3.05;;
39454;SDS011;25155;41.890;23.446;2023-02-02T10:17:39;5.03;;;2.80;;
39454;SDS011;25155;41.890;23.446;2023-02-02T10:20:14;5.45;;;3.05;;
39454;SDS011;25155;41.890;23.446;2023-02-02T10:22:52;5.53;;;2.83;;
39454;SDS011;25155;41.890;23.446;2023-02-02T10:25:24;5.53;;;2.97;;
39454;SDS011;25155;41.890;23.446;2023-02-02T10:27:54;4.20;;;2.78;;
39454;SDS011;25155;41.890;23.446;2023-02-02T10:30:33;4.65;;;2.72;;
39454;SDS011;25155;41.890;23.446;2023-02-02T10:33:12;5.60;;;3.10;;
39454;SDS011;25155;41.890;23.446;2023-02-02T10:35:48;5.00;;;2.75;;
39454;SDS011;25155;41.890;23.446;2023-02-02T10:38:25;6.38;;;3.13;;
39454;SDS011;25155;41.890;23.446;2023-02-02T10:41:04;4.28;;;2.60;;
39454;SDS011;25155;41.890;23.446;2023-02-02T10:43:52;5.97;;;2.75;;
39454;SDS011;25155;41.890;23.446;2023-02-02T10:46:32;5.55;;;3.20;;
39454;SDS011;25155;41.890;23.446;2023-02-02T10:49:11;5.30;;;2.75;;
39454;SDS011;25155;41.890;23.446;2023-02-02T10:51:44;5.18;;;2.85;;
39454;SDS011;25155;41.890;23.446;2023-02-02T10:54:23;4.13;;;2.50;;
39454;SDS011;25155;41.890;23.446;2023-02-02T10:56:59;4.60;;;2.85;;
39454;SDS011;25155;41.890;23.446;2023-02-02T10:59:30;5.03;;;2.70;;
39454;SDS011;25155;41.890;23.446;2023-02-02T11:02:02;4.47;;;3.03;;
39454;SDS011;25155;41.890;23.446;2023-02-02T11:04:33;4.40;;;2.58;;
39454;SDS011;25155;41.890;23.446;2023-02-02T11:07:17;6.18;;;3.03;;
39454;SDS011;25155;41.890;23.446;2023-02-02T11:09:46;4.93;;;2.83;;
39454;SDS011;25155;41.890;23.446;2023-02-02T11:12:15;5.03;;;2.88;;
39454;SDS011;25155;41.890;23.446;2023-02-02T11:14:50;4.50;;;2.70;;
39454;SDS011;25155;41.890;23.446;2023-02-02T11:17:22;5.32;;;2.80;;
39454;SDS011;25155;41.890;23.446;2023-02-02T11:19:51;6.45;;;2.53;;
39454;SDS011;25155;41.890;23.446;2023-02-02T11:22:24;5.25;;;2.85;;
39454;SDS011;25155;41.890;23.446;2023-02-02T11:24:55;4.53;;;2.55;;
39454;SDS011;25155;41.890;23.446;2023-02-02T11:27:26;6.57;;;2.50;;
39454;SDS011;25155;41.890;23.446;2023-02-02T11:29:57;5.90;;;2.50;;
39454;SDS011;25155;41.890;23.446;2023-02-02T11:32:27;5.07;;;2.30;;
39454;SDS011;25155;41.890;23.446;2023-02-02T11:35:18;3.50;;;2.28;;
39454;SDS011;25155;41.890;23.446;2023-02-02T11:37:51;6.03;;;2.75;;
39454;SDS011;25155;41.890;23.446;2023-02-02T11:40:36;5.43;;;2.60;;
39454;SDS011;25155;41.890;23.446;2023-02-02T11:43:13;4.53;;;2.50;;
39454;SDS011;25155;41.890;23.446;2023-02-02T11:45:43;5.22;;;3.00;;
39454;SDS011;25155;41.890;23.446;2023-02-02T11:48:15;4.75;;;2.80;;
39454;SDS011;25155;41.890;23.446;2023-02-02T11:50:45;6.35;;;2.90;;
39454;SDS011;25155;41.890;23.446;2023-02-02T11:53:24;5.40;;;2.78;;
39454;SDS011;25155;41.890;23.446;2023-02-02T11:55:56;4.43;;;2.60;;
39454;SDS011;25155;41.890;23.446;2023-02-02T11:58:26;4.13;;;2.45;;
39454;SDS011;25155;41.890;23.446;2023-02-02T12:00:56;7.30;;;2.75;;
39454;SDS011;25155;41.890;23.446;2023-02-02T12:03:30;4.00;;;2.40;;
39454;SDS011;25155;41.890;23.446;2023-02-02T12:05:59;3.63;;;2.30;;
39454;SDS011;25155;41.890;23.446;2023-02-02T12:08:42;3.78;;;2.25;;
39454;SDS011;25155;41.890;23.446;2023-02-02T12:11:12;4.63;;;2.50;;
39454;SDS011;25155;41.890;23.446;2023-02-02T12:13:55;4.60;;;2.33;;
39454;SDS011;25155;41.890;23.446;2023-02-02T12:16:40;3.75;;;2.20;;
39454;SDS011;25155;41.890;23.446;2023-02-02T12:19:23;4.07;;;2.25;;
39454;SDS011;25155;41.890;23.446;2023-02-02T12:22:05;4.15;;;2.42;;
39454;SDS011;25155;41.890;23.446;2023-02-02T12:24:43;4.55;;;2.45;;
39454;SDS011;25155;41.890;23.446;2023-02-02T12:27:21;5.00;;;2.45;;
39454;SDS011;25155;41.890;23.446;2023-02-02T12:32:58;3.75;;;2.15;;
39454;SDS011;25155;41.890;23.446;2023-02-02T12:35:43;4.45;;;2.33;;
39454;SDS011;25155;41.890;23.446;2023-02-02T12:40:57;4.05;;;2.40;;
39454;SDS011;25155;41.890;23.446;2023-02-02T12:43:43;4.70;;;2.63;;
39454;SDS011;25155;41.890;23.446;2023-02-02T12:49:02;4.20;;;2.78;;
39454;SDS011;25155;41.890;23.446;2023-02-02T12:51:53;4.07;;;2.45;;
39454;SDS011;25155;41.890;23.446;2023-02-02T12:54:35;4.35;;;2.53;;
39454;SDS011;25155;41.890;23.446;2023-02-02T12:59:59;3.58;;;2.05;;
39454;SDS011;25155;41.890;23.446;2023-02-02T13:02:37;3.83;;;2.28;;
39454;SDS011;25155;41.890;23.446;2023-02-02T13:05:23;3.90;;;2.20;;
39454;SDS011;25155;41.890;23.446;2023-02-02T13:08:02;3.28;;;2.17;;
39454;SDS011;25155;41.890;23.446;2023-02-02T13:10:35;3.35;;;2.28;;
39454;SDS011;25155;41.890;23.446;2023-02-02T13:13:07;3.28;;;2.15;;
39454;SDS011;25155;41.890;23.446;2023-02-02T13:18:09;4.10;;;2.30;;
39454;SDS011;25155;41.890;23.446;2023-02-02T13:20:41;3.45;;;2.28;;
39454;SDS011;25155;41.890;23.446;2023-02-02T13:23:12;3.20;;;2.15;;
39454;SDS011;25155;41.890;23.446;2023-02-02T13:25:46;4.47;;;2.40;;
39454;SDS011;25155;41.890;23.446;2023-02-02T13:28:27;3.55;;;2.28;;
39454;SDS011;25155;41.890;23.446;2023-02-02T13:31:03;4.32;;;2.40;;
39454;SDS011;25155;41.890;23.446;2023-02-02T13:33:37;4.68;;;2.38;;
39454;SDS011;25155;41.890;23.446;2023-02-02T13:36:08;3.47;;;2.17;;
39454;SDS011;25155;41.890;23.446;2023-02-02T13:38:43;3.42;;;2.17;;
39454;SDS011;25155;41.890;23.446;2023-02-02T13:41:10;3.28;;;2.10;;
39454;SDS011;25155;41.890;23.446;2023-02-02T13:43:43;4.65;;;2.20;;
39454;SDS011;25155;41.890;23.446;2023-02-02T13:46:25;5.57;;;2.22;;
39454;SDS011;25155;41.890;23.446;2023-02-02T13:49:00;3.58;;;1.88;;
39454;SDS011;25155;41.890;23.446;2023-02-02T13:51:45;2.63;;;1.85;;
39454;SDS011;25155;41.890;23.446;2023-02-02T13:57:28;2.97;;;1.95;;
39454;SDS011;25155;41.890;23.446;2023-02-02T14:00:13;5.78;;;2.08;;
39454;SDS011;25155;41.890;23.446;2023-02-02T14:02:45;2.90;;;1.80;;
39454;SDS011;25155;41.890;23.446;2023-02-02T14:05:25;3.05;;;1.92;;
39454;SDS011;25155;41.890;23.446;2023-02-02T14:07:56;3.95;;;2.22;;
39454;SDS011;25155;41.890;23.446;2023-02-02T14:10:29;3.35;;;2.00;;
39454;SDS011;25155;41.890;23.446;2023-02-02T14:13:07;3.23;;;2.00;;
39454;SDS011;25155;41.890;23.446;2023-02-02T14:16:01;2.45;;;1.70;;
39454;SDS011;25155;41.890;23.446;2023-02-02T14:24:41;4.53;;;2.03;;
39454;SDS011;25155;41.890;23.446;2023-02-02T14:30:21;2.72;;;1.80;;
39454;SDS011;25155;41.890;23.446;2023-02-02T14:32:50;3.25;;;2.17;;
39454;SDS011;25155;41.890;23.446;2023-02-02T14:38:45;3.50;;;2.15;;
39454;SDS011;25155;41.890;23.446;2023-02-02T14:41:36;2.92;;;1.95;;
39454;SDS011;25155;41.890;23.446;2023-02-02T14:44:34;4.35;;;1.98;;
39454;SDS011;25155;41.890;23.446;2023-02-02T14:47:03;3.58;;;1.80;;
39454;SDS011;25155;41.890;23.446;2023-02-02T14:49:50;3.35;;;2.05;;
39454;SDS011;25155;41.890;23.446;2023-02-02T14:52:23;2.78;;;1.80;;
39454;SDS011;25155;41.890;23.446;2023-02-02T14:54:53;3.30;;;1.90;;
39454;SDS011;25155;41.890;23.446;2023-02-02T14:57:23;4.65;;;1.95;;
39454;SDS011;25155;41.890;23.446;2023-02-02T14:59:52;3.47;;;1.90;;
39454;SDS011;25155;41.890;23.446;2023-02-02T15:02:22;3.30;;;1.85;;
39454;SDS011;25155;41.890;23.446;2023-02-02T15:08:07;5.53;;;1.92;;
39454;SDS011;25155;41.890;23.446;2023-02-02T15:10:57;4.55;;;2.20;;
39454;SDS011;25155;41.890;23.446;2023-02-02T15:13:26;3.97;;;2.10;;
39454;SDS011;25155;41.890;23.446;2023-02-02T15:16:04;4.47;;;1.90;;
39454;SDS011;25155;41.890;23.446;2023-02-02T15:18:39;6.07;;;2.20;;
39454;SDS011;25155;41.890;23.446;2023-02-02T15:23:41;3.05;;;1.80;;
39454;SDS011;25155;41.890;23.446;2023-02-02T15:26:14;4.57;;;2.08;;
39454;SDS011;25155;41.890;23.446;2023-02-02T15:28:46;4.65;;;2.22;;
39454;SDS011;25155;41.890;23.446;2023-02-02T15:31:17;3.90;;;2.10;;
39454;SDS011;25155;41.890;23.446;2023-02-02T15:33:54;4.15;;;1.90;;
39454;SDS011;25155;41.890;23.446;2023-02-02T15:36:26;3.10;;;1.90;;
39454;SDS011;25155;41.890;23.446;2023-02-02T15:38:56;3.90;;;2.20;;
39454;SDS011;25155;41.890;23.446;2023-02-02T15:41:30;3.20;;;2.10;;
39454;SDS011;25155;41.890;23.446;2023-02-02T15:43:59;3.42;;;1.85;;
39454;SDS011;25155;41.890;23.446;2023-02-02T15:46:26;3.45;;;2.00;;
39454;SDS011;25155;41.890;23.446;2023-02-02T15:49:14;5.28;;;2.00;;